sensor_id;sensor_type;location;lat;lon;timestamp;P1;durP1;ratioP1;P2;durP2;ratioP2
23490;SDS011;14683;50.038;8.078;2022-09-12T06:00:50;24.57;;;13.37;;
23490;SDS011;14683;50.038;8.078;2022-09-12T06:05:42;23.00;;;13.10;;
23490;SDS011;14683;50.038;8.078;2022-09-12T06:08:08;19.45;;;11.52;;
23490;SDS011;14683;50.038;8.078;2022-09-12T06:13:00;14.48;;;10.57;;
23490;SDS011;14683;50.038;8.078;2022-09-12T06:15:26;17.17;;;11.10;;
23490;SDS011;14683;50.038;8.078;2022-09-12T06:17:52;17.55;;;11.98;;
23490;SDS011;14683;50.038;8.078;2022-09-12T06:20:19;14.77;;;9.63;;
23490;SDS011;14683;50.038;8.078;2022-09-12T06:22:45;18.25;;;10.57;;
23490;SDS011;14683;50.038;8.078;2022-09-12T06:25:12;14.65;;;10.15;;
23490;SDS011;14683;50.038;8.078;2022-09-12T06:27:39;15.27;;;10.13;;
23490;SDS011;14683;50.038;8.078;2022-09-12T06:30:05;16.33;;;11.63;;
23490;SDS011;14683;50.038;8.078;2022-09-12T06:32:31;15.95;;;11.50;;
23490;SDS011;14683;50.038;8.078;2022-09-12T06:34:59;17.73;;;11.50;;
23490;SDS011;14683;50.038;8.078;2022-09-12T06:37:25;14.80;;;10.52;;
23490;SDS011;14683;50.038;8.078;2022-09-12T06:39:51;15.00;;;11.05;;
23490;SDS011;14683;50.038;8.078;2022-09-12T06:42:18;14.85;;;10.55;;
23490;SDS011;14683;50.038;8.078;2022-09-12T06:47:20;14.18;;;10.90;;
23490;SDS011;14683;50.038;8.078;2022-09-12T06:49:46;15.18;;;10.85;;
23490;SDS011;14683;50.038;8.078;2022-09-12T06:52:12;15.85;;;10.45;;
23490;SDS011;14683;50.038;8.078;2022-09-12T06:54:38;12.52;;;10.07;;
23490;SDS011;14683;50.038;8.078;2022-09-12T06:57:04;13.90;;;11.05;;
23490;SDS011;14683;50.038;8.078;2022-09-12T06:59:30;13.63;;;9.95;;
23490;SDS011;14683;50.038;8.078;2022-09-12T07:01:56;13.35;;;10.30;;
23490;SDS011;14683;50.038;8.078;2022-09-12T07:04:22;14.43;;;10.13;;
23490;SDS011;14683;50.038;8.078;2022-09-12T07:06:48;13.63;;;9.52;;
23490;SDS011;14683;50.038;8.078;2022-09-12T07:09:14;14.77;;;10.75;;
23490;SDS011;14683;50.038;8.078;2022-09-12T07:11:41;14.05;;;10.48;;
23490;SDS011;14683;50.038;8.078;2022-09-12T07:14:09;18.38;;;11.05;;
23490;SDS011;14683;50.038;8.078;2022-09-12T07:16:36;21.88;;;11.57;;
23490;SDS011;14683;50.038;8.078;2022-09-12T07:19:03;20.20;;;11.23;;
23490;SDS011;14683;50.038;8.078;2022-09-12T07:21:30;37.88;;;12.55;;
23490;SDS011;14683;50.038;8.078;2022-09-12T07:23:57;16.88;;;11.45;;
23490;SDS011;14683;50.038;8.078;2022-09-12T07:26:26;18.13;;;11.18;;
23490;SDS011;14683;50.038;8.078;2022-09-12T07:28:54;17.55;;;10.80;;
23490;SDS011;14683;50.038;8.078;2022-09-12T07:31:21;16.38;;;11.50;;
23490;SDS011;14683;50.038;8.078;2022-09-12T07:33:49;17.10;;;10.73;;
23490;SDS011;14683;50.038;8.078;2022-09-12T07:36:16;15.52;;;11.10;;
23490;SDS011;14683;50.038;8.078;2022-09-12T07:38:44;19.15;;;11.57;;
23490;SDS011;14683;50.038;8.078;2022-09-12T07:41:12;13.80;;;10.70;;
23490;SDS011;14683;50.038;8.078;2022-09-12T07:43:38;14.10;;;10.55;;
23490;SDS011;14683;50.038;8.078;2022-09-12T07:46:04;15.10;;;11.40;;
23490;SDS011;14683;50.038;8.078;2022-09-12T07:48:31;17.60;;;11.60;;
23490;SDS011;14683;50.038;8.078;2022-09-12T07:50:58;15.15;;;11.35;;
23490;SDS011;14683;50.038;8.078;2022-09-12T07:53:35;13.55;;;10.65;;
23490;SDS011;14683;50.038;8.078;2022-09-12T07:56:04;16.25;;;11.13;;
23490;SDS011;14683;50.038;8.078;2022-09-12T07:58:31;15.75;;;11.13;;
23490;SDS011;14683;50.038;8.078;2022-09-12T08:01:04;23.52;;;11.27;;
23490;SDS011;14683;50.038;8.078;2022-09-12T08:03:33;12.60;;;9.95;;
23490;SDS011;14683;50.038;8.078;2022-09-12T08:06:04;14.30;;;10.00;;
23490;SDS011;14683;50.038;8.078;2022-09-12T08:08:30;12.65;;;10.27;;
23490;SDS011;14683;50.038;8.078;2022-09-12T08:11:00;17.17;;;11.15;;
23490;SDS011;14683;50.038;8.078;2022-09-12T08:13:29;16.52;;;10.77;;
23490;SDS011;14683;50.038;8.078;2022-09-12T08:15:56;16.83;;;11.30;;
23490;SDS011;14683;50.038;8.078;2022-09-12T08:18:26;15.25;;;11.48;;
23490;SDS011;14683;50.038;8.078;2022-09-12T08:20:56;15.32;;;11.35;;
23490;SDS011;14683;50.038;8.078;2022-09-12T08:23:26;15.10;;;11.20;;
23490;SDS011;14683;50.038;8.078;2022-09-12T08:26:00;13.02;;;10.90;;
23490;SDS011;14683;50.038;8.078;2022-09-12T08:28:28;15.20;;;11.00;;
23490;SDS011;14683;50.038;8.078;2022-09-12T08:30:59;13.75;;;10.35;;
23490;SDS011;14683;50.038;8.078;2022-09-12T08:33:25;13.75;;;11.20;;
23490;SDS011;14683;50.038;8.078;2022-09-12T08:36:11;12.57;;;9.65;;
23490;SDS011;14683;50.038;8.078;2022-09-12T08:38:39;12.35;;;9.93;;
23490;SDS011;14683;50.038;8.078;2022-09-12T08:43:49;13.80;;;10.48;;
23490;SDS011;14683;50.038;8.078;2022-09-12T08:46:17;14.77;;;10.85;;
23490;SDS011;14683;50.038;8.078;2022-09-12T08:48:46;15.18;;;10.77;;
23490;SDS011;14683;50.038;8.078;2022-09-12T08:51:13;15.32;;;10.07;;
23490;SDS011;14683;50.038;8.078;2022-09-12T08:53:42;14.68;;;11.05;;
23490;SDS011;14683;50.038;8.078;2022-09-12T08:56:11;14.73;;;10.55;;
23490;SDS011;14683;50.038;8.078;2022-09-12T08:58:41;13.50;;;9.90;;
23490;SDS011;14683;50.038;8.078;2022-09-12T09:01:12;13.80;;;11.23;;
23490;SDS011;14683;50.038;8.078;2022-09-12T09:12:07;12.07;;;9.35;;
23490;SDS011;14683;50.038;8.078;2022-09-12T09:20:12;13.93;;;10.00;;
23490;SDS011;14683;50.038;8.078;2022-09-12T09:22:56;11.07;;;9.48;;
23490;SDS011;14683;50.038;8.078;2022-09-12T09:28:29;13.55;;;9.73;;
23490;SDS011;14683;50.038;8.078;2022-09-12T09:31:00;15.02;;;9.35;;
23490;SDS011;14683;50.038;8.078;2022-09-12T09:33:28;13.48;;;9.07;;
23490;SDS011;14683;50.038;8.078;2022-09-12T09:36:01;11.73;;;9.10;;
23490;SDS011;14683;50.038;8.078;2022-09-12T09:43:51;11.80;;;8.68;;
23490;SDS011;14683;50.038;8.078;2022-09-12T09:46:17;10.27;;;8.05;;
23490;SDS011;14683;50.038;8.078;2022-09-12T09:51:10;8.27;;;6.60;;
23490;SDS011;14683;50.038;8.078;2022-09-12T09:56:42;20.83;;;7.57;;
23490;SDS011;14683;50.038;8.078;2022-09-12T09:59:15;8.52;;;6.50;;
23490;SDS011;14683;50.038;8.078;2022-09-12T10:04:33;6.85;;;5.93;;
23490;SDS011;14683;50.038;8.078;2022-09-12T10:06:59;9.20;;;6.22;;
23490;SDS011;14683;50.038;8.078;2022-09-12T10:09:27;7.78;;;6.53;;
23490;SDS011;14683;50.038;8.078;2022-09-12T10:11:54;8.90;;;6.32;;
23490;SDS011;14683;50.038;8.078;2022-09-12T10:14:38;11.55;;;3.90;;
23490;SDS011;14683;50.038;8.078;2022-09-12T10:19:47;7.05;;;3.63;;
23490;SDS011;14683;50.038;8.078;2022-09-12T10:24:46;4.65;;;3.47;;
23490;SDS011;14683;50.038;8.078;2022-09-12T10:32:26;6.38;;;4.22;;
23490;SDS011;14683;50.038;8.078;2022-09-12T10:34:58;5.05;;;4.10;;
23490;SDS011;14683;50.038;8.078;2022-09-12T10:37:30;6.32;;;4.10;;
23490;SDS011;14683;50.038;8.078;2022-09-12T10:39:58;9.65;;;4.80;;
23490;SDS011;14683;50.038;8.078;2022-09-12T10:45:22;5.03;;;3.80;;
23490;SDS011;14683;50.038;8.078;2022-09-12T10:50:56;5.55;;;3.92;;
23490;SDS011;14683;50.038;8.078;2022-09-12T10:53:24;7.30;;;4.45;;
23490;SDS011;14683;50.038;8.078;2022-09-12T10:56:02;5.07;;;4.22;;
23490;SDS011;14683;50.038;8.078;2022-09-12T11:01:26;9.23;;;4.35;;
23490;SDS011;14683;50.038;8.078;2022-09-12T11:07:13;7.78;;;6.07;;
23490;SDS011;14683;50.038;8.078;2022-09-12T11:17:55;9.80;;;7.53;;
23490;SDS011;14683;50.038;8.078;2022-09-12T11:29:49;7.43;;;5.90;;
23490;SDS011;14683;50.038;8.078;2022-09-12T11:40:52;6.72;;;5.30;;
23490;SDS011;14683;50.038;8.078;2022-09-12T11:43:49;7.10;;;5.20;;
23490;SDS011;14683;50.038;8.078;2022-09-12T11:51:43;5.05;;;4.53;;
23490;SDS011;14683;50.038;8.078;2022-09-12T11:59:42;5.80;;;4.93;;
23490;SDS011;14683;50.038;8.078;2022-09-12T12:02:13;4.80;;;4.30;;
23490;SDS011;14683;50.038;8.078;2022-09-12T12:07:42;6.78;;;4.22;;
23490;SDS011;14683;50.038;8.078;2022-09-12T12:10:38;7.82;;;4.57;;
23490;SDS011;14683;50.038;8.078;2022-09-12T12:16:14;6.95;;;5.20;;
23490;SDS011;14683;50.038;8.078;2022-09-12T12:18:40;5.20;;;4.70;;
23490;SDS011;14683;50.038;8.078;2022-09-12T12:21:25;5.20;;;4.15;;
23490;SDS011;14683;50.038;8.078;2022-09-12T12:29:03;4.45;;;4.05;;
23490;SDS011;14683;50.038;8.078;2022-09-12T12:31:35;4.20;;;3.80;;
23490;SDS011;14683;50.038;8.078;2022-09-12T12:34:28;5.82;;;3.50;;
23490;SDS011;14683;50.038;8.078;2022-09-12T12:47:51;2.70;;;2.50;;
23490;SDS011;14683;50.038;8.078;2022-09-12T12:52:48;5.07;;;3.35;;
23490;SDS011;14683;50.038;8.078;2022-09-12T12:55:23;4.38;;;3.55;;
23490;SDS011;14683;50.038;8.078;2022-09-12T12:57:51;6.18;;;3.22;;
23490;SDS011;14683;50.038;8.078;2022-09-12T13:03:09;4.50;;;3.85;;
23490;SDS011;14683;50.038;8.078;2022-09-12T13:08:09;3.80;;;3.30;;
23490;SDS011;14683;50.038;8.078;2022-09-12T13:10:54;3.28;;;3.08;;
23490;SDS011;14683;50.038;8.078;2022-09-12T13:13:23;4.18;;;3.50;;
23490;SDS011;14683;50.038;8.078;2022-09-12T13:15:52;3.33;;;3.03;;
23490;SDS011;14683;50.038;8.078;2022-09-12T13:21:08;5.00;;;3.67;;
23490;SDS011;14683;50.038;8.078;2022-09-12T13:23:34;3.40;;;3.10;;
23490;SDS011;14683;50.038;8.078;2022-09-12T13:26:00;3.53;;;2.78;;
23490;SDS011;14683;50.038;8.078;2022-09-12T13:28:27;4.63;;;2.83;;
23490;SDS011;14683;50.038;8.078;2022-09-12T13:30:57;3.33;;;3.03;;
23490;SDS011;14683;50.038;8.078;2022-09-12T13:36:14;2.72;;;2.40;;
23490;SDS011;14683;50.038;8.078;2022-09-12T13:39:08;1.92;;;1.83;;
23490;SDS011;14683;50.038;8.078;2022-09-12T13:45:19;2.70;;;2.50;;
23490;SDS011;14683;50.038;8.078;2022-09-12T13:47:43;4.60;;;2.38;;
23490;SDS011;14683;50.038;8.078;2022-09-12T13:50:14;2.53;;;2.40;;
23490;SDS011;14683;50.038;8.078;2022-09-12T13:52:44;2.97;;;2.63;;
23490;SDS011;14683;50.038;8.078;2022-09-12T13:55:28;3.70;;;2.40;;
23490;SDS011;14683;50.038;8.078;2022-09-12T13:58:05;2.35;;;2.15;;
23490;SDS011;14683;50.038;8.078;2022-09-12T14:00:40;4.55;;;2.65;;
23490;SDS011;14683;50.038;8.078;2022-09-12T14:03:24;2.55;;;2.35;;
23490;SDS011;14683;50.038;8.078;2022-09-12T14:06:13;2.10;;;1.90;;
23490;SDS011;14683;50.038;8.078;2022-09-12T14:08:41;2.20;;;2.10;;
23490;SDS011;14683;50.038;8.078;2022-09-12T14:11:09;2.45;;;2.30;;
23490;SDS011;14683;50.038;8.078;2022-09-12T14:13:35;2.90;;;2.70;;
23490;SDS011;14683;50.038;8.078;2022-09-12T14:16:03;3.00;;;2.80;;
23490;SDS011;14683;50.038;8.078;2022-09-12T14:18:33;2.78;;;2.58;;
23490;SDS011;14683;50.038;8.078;2022-09-12T14:21:07;3.20;;;2.72;;
23490;SDS011;14683;50.038;8.078;2022-09-12T14:23:41;3.35;;;2.83;;
23490;SDS011;14683;50.038;8.078;2022-09-12T14:26:09;3.30;;;3.00;;
23490;SDS011;14683;50.038;8.078;2022-09-12T14:28:41;4.75;;;2.60;;
23490;SDS011;14683;50.038;8.078;2022-09-12T14:33:47;3.50;;;2.50;;
23490;SDS011;14683;50.038;8.078;2022-09-12T14:36:19;3.17;;;2.63;;
23490;SDS011;14683;50.038;8.078;2022-09-12T14:38:48;4.20;;;2.78;;
23490;SDS011;14683;50.038;8.078;2022-09-12T14:41:50;3.10;;;2.75;;
23490;SDS011;14683;50.038;8.078;2022-09-12T14:44:30;4.43;;;2.50;;
23490;SDS011;14683;50.038;8.078;2022-09-12T14:46:55;2.92;;;2.72;;
23490;SDS011;14683;50.038;8.078;2022-09-12T14:49:35;2.95;;;2.75;;
23490;SDS011;14683;50.038;8.078;2022-09-12T14:54:41;3.63;;;3.20;;
23490;SDS011;14683;50.038;8.078;2022-09-12T14:57:27;2.92;;;2.67;;
23490;SDS011;14683;50.038;8.078;2022-09-12T15:00:31;4.53;;;3.00;;
23490;SDS011;14683;50.038;8.078;2022-09-12T15:02:51;2.88;;;2.67;;
23490;SDS011;14683;50.038;8.078;2022-09-12T15:05:22;3.58;;;3.28;;
23490;SDS011;14683;50.038;8.078;2022-09-12T15:07:51;4.25;;;3.53;;
23490;SDS011;14683;50.038;8.078;2022-09-12T15:10:27;4.25;;;3.30;;
23490;SDS011;14683;50.038;8.078;2022-09-12T15:13:03;3.38;;;3.03;;
23490;SDS011;14683;50.038;8.078;2022-09-12T15:15:34;3.55;;;3.22;;
23490;SDS011;14683;50.038;8.078;2022-09-12T15:18:02;4.03;;;3.50;;
23490;SDS011;14683;50.038;8.078;2022-09-12T15:20:28;3.45;;;3.15;;
23490;SDS011;14683;50.038;8.078;2022-09-12T15:22:54;5.55;;;3.22;;
23490;SDS011;14683;50.038;8.078;2022-09-12T15:25:21;3.72;;;3.42;;
23490;SDS011;14683;50.038;8.078;2022-09-12T15:27:47;3.55;;;3.10;;
23490;SDS011;14683;50.038;8.078;2022-09-12T15:30:16;4.10;;;2.75;;
23490;SDS011;14683;50.038;8.078;2022-09-12T15:32:42;3.33;;;3.05;;
23490;SDS011;14683;50.038;8.078;2022-09-12T15:35:16;3.50;;;3.00;;
23490;SDS011;14683;50.038;8.078;2022-09-12T15:37:43;3.10;;;2.88;;
23490;SDS011;14683;50.038;8.078;2022-09-12T15:42:38;5.18;;;3.53;;
23490;SDS011;14683;50.038;8.078;2022-09-12T15:45:11;3.80;;;3.33;;
23490;SDS011;14683;50.038;8.078;2022-09-12T15:47:42;6.63;;;3.50;;
23490;SDS011;14683;50.038;8.078;2022-09-12T15:52:35;3.85;;;3.42;;
23490;SDS011;14683;50.038;8.078;2022-09-12T15:55:02;2.88;;;2.58;;
23490;SDS011;14683;50.038;8.078;2022-09-12T15:57:28;4.00;;;2.88;;
23490;SDS011;14683;50.038;8.078;2022-09-12T15:59:54;4.40;;;2.80;;
23490;SDS011;14683;50.038;8.078;2022-09-12T16:02:20;3.53;;;2.97;;
23490;SDS011;14683;50.038;8.078;2022-09-12T16:04:46;3.53;;;3.22;;
23490;SDS011;14683;50.038;8.078;2022-09-12T16:07:12;4.18;;;2.78;;
23490;SDS011;14683;50.038;8.078;2022-09-12T16:09:38;4.00;;;3.05;;
23490;SDS011;14683;50.038;8.078;2022-09-12T16:12:04;3.78;;;2.80;;
23490;SDS011;14683;50.038;8.078;2022-09-12T16:16:56;2.58;;;2.33;;
23490;SDS011;14683;50.038;8.078;2022-09-12T16:19:22;3.10;;;2.80;;
23490;SDS011;14683;50.038;8.078;2022-09-12T16:21:49;3.20;;;2.55;;
23490;SDS011;14683;50.038;8.078;2022-09-12T16:24:15;4.85;;;2.65;;
23490;SDS011;14683;50.038;8.078;2022-09-12T16:26:41;2.92;;;2.70;;
23490;SDS011;14683;50.038;8.078;2022-09-12T16:29:07;4.20;;;2.72;;
23490;SDS011;14683;50.038;8.078;2022-09-12T16:31:35;2.80;;;2.42;;
23490;SDS011;14683;50.038;8.078;2022-09-12T16:34:02;2.92;;;2.72;;
23490;SDS011;14683;50.038;8.078;2022-09-12T16:36:28;2.90;;;2.60;;
23490;SDS011;14683;50.038;8.078;2022-09-12T16:38:55;3.20;;;2.90;;
23490;SDS011;14683;50.038;8.078;2022-09-12T16:41:21;2.60;;;2.40;;
23490;SDS011;14683;50.038;8.078;2022-09-12T16:43:51;3.55;;;2.60;;
23490;SDS011;14683;50.038;8.078;2022-09-12T16:46:21;2.20;;;2.10;;
23490;SDS011;14683;50.038;8.078;2022-09-12T16:48:50;2.67;;;2.47;;
23490;SDS011;14683;50.038;8.078;2022-09-12T16:51:19;2.72;;;2.53;;
23490;SDS011;14683;50.038;8.078;2022-09-12T16:53:46;2.70;;;2.50;;
23490;SDS011;14683;50.038;8.078;2022-09-12T16:56:13;3.30;;;2.90;;
23490;SDS011;14683;50.038;8.078;2022-09-12T16:58:40;2.97;;;2.78;;
23490;SDS011;14683;50.038;8.078;2022-09-12T17:01:07;2.58;;;2.40;;
23490;SDS011;14683;50.038;8.078;2022-09-12T17:03:38;3.85;;;2.83;;
23490;SDS011;14683;50.038;8.078;2022-09-12T17:06:06;3.55;;;2.67;;
23490;SDS011;14683;50.038;8.078;2022-09-12T17:08:34;3.65;;;3.00;;
23490;SDS011;14683;50.038;8.078;2022-09-12T17:11:03;3.60;;;3.08;;
23490;SDS011;14683;50.038;8.078;2022-09-12T17:13:30;2.95;;;2.65;;
23490;SDS011;14683;50.038;8.078;2022-09-12T17:15:57;2.67;;;2.47;;
23490;SDS011;14683;50.038;8.078;2022-09-12T17:18:23;5.40;;;3.10;;
23490;SDS011;14683;50.038;8.078;2022-09-12T17:23:15;3.78;;;2.85;;
23490;SDS011;14683;50.038;8.078;2022-09-12T17:25:45;3.28;;;2.97;;
23490;SDS011;14683;50.038;8.078;2022-09-12T17:28:12;3.30;;;2.83;;
23490;SDS011;14683;50.038;8.078;2022-09-12T17:30:38;6.15;;;3.00;;
23490;SDS011;14683;50.038;8.078;2022-09-12T17:33:04;3.55;;;2.90;;
23490;SDS011;14683;50.038;8.078;2022-09-12T17:35:32;6.07;;;3.00;;
23490;SDS011;14683;50.038;8.078;2022-09-12T17:37:59;6.40;;;3.20;;
23490;SDS011;14683;50.038;8.078;2022-09-12T17:40:26;3.45;;;3.15;;
23490;SDS011;14683;50.038;8.078;2022-09-12T17:42:52;3.13;;;2.92;;
23490;SDS011;14683;50.038;8.078;2022-09-12T17:45:18;4.32;;;3.08;;
23490;SDS011;14683;50.038;8.078;2022-09-12T17:47:44;3.75;;;2.70;;
23490;SDS011;14683;50.038;8.078;2022-09-12T17:50:10;2.90;;;2.70;;
23490;SDS011;14683;50.038;8.078;2022-09-12T17:52:36;2.90;;;2.50;;
23490;SDS011;14683;50.038;8.078;2022-09-12T17:55:02;3.38;;;3.08;;
23490;SDS011;14683;50.038;8.078;2022-09-12T17:57:28;6.13;;;3.17;;
23490;SDS011;14683;50.038;8.078;2022-09-12T17:59:54;3.50;;;3.20;;
23490;SDS011;14683;50.038;8.078;2022-09-12T18:02:20;3.15;;;2.72;;
23490;SDS011;14683;50.038;8.078;2022-09-12T18:04:47;2.45;;;2.28;;
23490;SDS011;14683;50.038;8.078;2022-09-12T18:07:13;6.25;;;2.78;;
23490;SDS011;14683;50.038;8.078;2022-09-12T18:09:40;4.68;;;3.03;;
23490;SDS011;14683;50.038;8.078;2022-09-12T18:12:06;7.20;;;3.33;;
23490;SDS011;14683;50.038;8.078;2022-09-12T18:14:33;4.80;;;3.00;;
23490;SDS011;14683;50.038;8.078;2022-09-12T18:19:25;3.25;;;2.95;;
23490;SDS011;14683;50.038;8.078;2022-09-12T18:21:52;3.83;;;3.00;;
23490;SDS011;14683;50.038;8.078;2022-09-12T18:24:19;6.65;;;3.17;;
23490;SDS011;14683;50.038;8.078;2022-09-12T18:26:45;5.68;;;2.60;;
23490;SDS011;14683;50.038;8.078;2022-09-12T18:29:11;3.60;;;3.30;;
23490;SDS011;14683;50.038;8.078;2022-09-12T18:31:41;3.83;;;2.95;;
23490;SDS011;14683;50.038;8.078;2022-09-12T18:34:09;3.40;;;2.97;;
23490;SDS011;14683;50.038;8.078;2022-09-12T18:36:39;4.35;;;3.25;;
23490;SDS011;14683;50.038;8.078;2022-09-12T18:39:05;4.85;;;2.75;;
23490;SDS011;14683;50.038;8.078;2022-09-12T18:41:31;4.30;;;2.40;;
23490;SDS011;14683;50.038;8.078;2022-09-12T18:43:58;4.13;;;3.00;;
23490;SDS011;14683;50.038;8.078;2022-09-12T18:46:26;4.05;;;3.20;;
23490;SDS011;14683;50.038;8.078;2022-09-12T18:48:54;3.97;;;2.97;;
23490;SDS011;14683;50.038;8.078;2022-09-12T18:51:23;2.90;;;2.70;;
23490;SDS011;14683;50.038;8.078;2022-09-12T18:53:54;3.20;;;2.83;;
23490;SDS011;14683;50.038;8.078;2022-09-12T18:56:21;6.20;;;2.97;;
23490;SDS011;14683;50.038;8.078;2022-09-12T18:58:50;2.63;;;2.40;;
23490;SDS011;14683;50.038;8.078;2022-09-12T19:01:23;5.97;;;5.18;;
23490;SDS011;14683;50.038;8.078;2022-09-12T19:03:51;3.88;;;3.33;;
23490;SDS011;14683;50.038;8.078;2022-09-12T19:06:18;5.30;;;3.22;;
23490;SDS011;14683;50.038;8.078;2022-09-12T19:08:45;5.85;;;3.05;;
23490;SDS011;14683;50.038;8.078;2022-09-12T19:13:41;2.88;;;2.58;;
23490;SDS011;14683;50.038;8.078;2022-09-12T19:16:09;3.10;;;2.90;;
23490;SDS011;14683;50.038;8.078;2022-09-12T19:18:37;6.57;;;3.20;;
23490;SDS011;14683;50.038;8.078;2022-09-12T19:21:04;3.28;;;3.08;;
23490;SDS011;14683;50.038;8.078;2022-09-12T19:23:31;5.75;;;2.92;;
23490;SDS011;14683;50.038;8.078;2022-09-12T19:25:59;6.20;;;3.10;;
23490;SDS011;14683;50.038;8.078;2022-09-12T19:28:32;3.53;;;3.17;;
23490;SDS011;14683;50.038;8.078;2022-09-12T19:30:58;2.65;;;2.45;;
23490;SDS011;14683;50.038;8.078;2022-09-12T19:33:24;2.97;;;2.75;;
23490;SDS011;14683;50.038;8.078;2022-09-12T19:35:50;4.57;;;3.25;;
23490;SDS011;14683;50.038;8.078;2022-09-12T19:40:42;3.15;;;2.92;;
23490;SDS011;14683;50.038;8.078;2022-09-12T19:43:09;3.60;;;3.30;;
